createdAt,value
2018-01-30T03:13:43.476Z,16.60
2018-01-30T03:14:41.725Z,16.80
2018-01-30T03:15:41.780Z,13.30
2018-01-30T03:16:41.748Z,13.40
2018-01-30T03:17:41.782Z,18.50
2018-01-30T03:18:41.733Z,14.00
2018-01-30T03:19:41.826Z,11.00
2018-01-30T03:20:41.729Z,12.50
2018-01-30T03:21:41.794Z,11.90
2018-01-30T03:22:41.750Z,18.30
2018-01-30T03:23:42.836Z,16.90
2018-01-30T03:24:41.751Z,13.40
2018-01-30T03:25:43.876Z,13.40
2018-01-30T03:26:42.481Z,17.30
2018-01-30T03:27:42.864Z,17.30
2018-01-30T03:28:41.777Z,15.50
2018-01-30T03:29:41.857Z,12.90
2018-01-30T03:30:41.781Z,17.80
2018-01-30T03:31:41.861Z,16.50
2018-01-30T03:32:41.812Z,17.60
2018-01-30T03:33:42.903Z,14.10
2018-01-30T03:34:41.838Z,16.20
2018-01-30T03:35:42.920Z,15.20
2018-01-30T03:36:41.848Z,12.10
2018-01-30T03:37:41.906Z,16.60
2018-01-30T03:38:41.820Z,16.60
2018-01-30T03:39:42.955Z,14.80
2018-01-30T03:40:41.840Z,16.50
2018-01-30T03:41:42.956Z,16.10
2018-01-30T03:42:41.843Z,18.10
2018-01-30T03:43:41.944Z,16.00
2018-01-30T03:44:41.869Z,13.80
2018-01-30T03:45:42.888Z,16.90
2018-01-30T03:46:41.861Z,18.70
2018-01-30T03:47:41.968Z,13.10
2018-01-30T03:48:41.877Z,16.70
2018-01-30T03:49:41.989Z,14.40
2018-01-30T03:50:41.884Z,14.40
2018-01-30T03:51:42.036Z,15.80
2018-01-30T03:52:41.888Z,17.30
2018-01-30T03:53:41.915Z,14.90
2018-01-30T03:54:41.912Z,13.20
2018-01-30T03:55:42.951Z,12.70
2018-01-30T03:56:41.925Z,14.80
2018-01-30T03:57:42.962Z,18.20
2018-01-30T03:58:41.926Z,16.10
2018-01-30T03:59:43.004Z,13.50
2018-01-30T04:00:41.926Z,17.60
2018-01-30T04:01:41.968Z,13.60
2018-01-30T04:02:41.961Z,18.10
2018-01-30T04:03:41.980Z,18.00
2018-01-30T04:04:41.953Z,13.90
2018-01-30T04:05:42.004Z,14.00
2018-01-30T04:06:41.990Z,16.50
2018-01-30T04:07:44.112Z,12.00
2018-01-30T04:08:41.976Z,17.10
2018-01-30T04:09:44.086Z,14.70
2018-01-30T04:10:41.985Z,15.30
2018-01-30T04:11:42.047Z,14.40
2018-01-30T04:12:42.043Z,12.70
2018-01-30T04:13:42.059Z,14.00
2018-01-30T04:14:42.010Z,17.30
2018-01-30T04:15:42.097Z,15.80
2018-01-30T04:16:42.018Z,13.60
2018-01-30T04:17:43.097Z,17.50
2018-01-30T04:18:42.023Z,11.70
2018-01-30T04:19:47.011Z,14.80
2018-01-30T04:20:42.027Z,14.70
2018-01-30T04:21:42.124Z,15.00
2018-01-30T04:22:42.043Z,15.40
2018-01-30T04:23:43.138Z,17.60
2018-01-30T04:24:42.075Z,14.70
2018-01-30T04:25:42.126Z,15.20
2018-01-30T04:26:42.059Z,15.40
2018-01-30T04:27:42.147Z,24.00
2018-01-30T04:28:42.065Z,15.70
2018-01-30T04:29:43.186Z,20.70
2018-01-30T04:30:42.119Z,16.50
2018-01-30T04:31:42.171Z,19.90
2018-01-30T04:32:42.105Z,16.80
2018-01-30T04:33:42.247Z,14.90
2018-01-30T04:34:42.099Z,19.20
2018-01-30T04:35:42.190Z,21.70
2018-01-30T04:36:42.110Z,19.90
2018-01-30T04:37:42.220Z,17.30
2018-01-30T04:38:42.121Z,16.30
2018-01-30T04:39:42.228Z,16.30
2018-01-30T04:40:42.150Z,20.40
2018-01-30T04:41:42.240Z,17.40
2018-01-30T04:42:42.138Z,11.90
2018-01-30T04:43:42.257Z,20.80
2018-01-30T04:44:42.158Z,19.70
2018-01-30T04:45:42.266Z,16.70
2018-01-30T04:46:42.163Z,19.10
2018-01-30T04:47:42.182Z,14.10
2018-01-30T04:48:42.220Z,17.20
2018-01-30T04:49:43.231Z,16.60
2018-01-30T04:50:42.180Z,17.90
2018-01-30T04:51:42.216Z,16.40
2018-01-30T04:52:42.218Z,19.50
2018-01-30T04:53:43.242Z,23.30
2018-01-30T04:54:42.200Z,20.20
2018-01-30T04:55:43.252Z,22.30
2018-01-30T04:56:42.220Z,19.60
2018-01-30T04:57:42.300Z,22.20
2018-01-30T04:58:42.215Z,23.70
2018-01-30T04:59:42.255Z,20.50
2018-01-30T05:00:42.250Z,25.60
2018-01-30T05:01:42.287Z,21.50
2018-01-30T05:02:42.254Z,21.10
2018-01-30T05:03:42.341Z,19.30
2018-01-30T05:04:42.257Z,22.20
2018-01-30T05:05:42.307Z,21.60
2018-01-30T05:06:42.300Z,23.90
2018-01-30T05:07:42.312Z,17.70
2018-01-30T05:08:42.296Z,16.50
2018-01-30T05:09:42.326Z,25.30
2018-01-30T05:10:42.306Z,20.70
2018-01-30T05:11:47.042Z,18.90
2018-01-30T05:12:42.308Z,22.90
2018-01-30T05:13:42.356Z,21.60
2018-01-30T05:14:42.302Z,17.90
2018-01-30T05:15:42.432Z,23.50
2018-01-30T05:16:42.313Z,20.40
2018-01-30T05:17:42.403Z,22.10
2018-01-30T05:18:42.315Z,22.80
2018-01-30T05:20:03.358Z,24.20
2018-01-30T05:20:42.338Z,22.80
2018-01-30T05:21:42.382Z,25.70
2018-01-30T05:22:42.350Z,22.30
2018-01-30T05:23:43.406Z,22.80
2018-01-30T05:24:42.341Z,20.40
2018-01-30T05:25:44.440Z,20.70
2018-01-30T05:26:42.344Z,23.70
2018-01-30T05:27:42.405Z,23.30
2018-01-30T05:28:42.367Z,25.80
2018-01-30T05:29:49.167Z,21.50
2018-01-30T05:30:42.398Z,24.30
2018-01-30T05:31:42.437Z,24.20
2018-01-30T05:32:42.377Z,22.90
2018-01-30T05:33:48.076Z,24.90
2018-01-30T05:34:42.396Z,23.70
2018-01-30T05:35:42.398Z,23.30
2018-01-30T05:36:42.428Z,25.00
2018-01-30T05:37:43.498Z,20.80
2018-01-30T05:38:42.452Z,23.10
2018-01-30T05:39:42.501Z,22.10
2018-01-30T05:40:42.443Z,25.80
2018-01-30T05:41:43.529Z,21.90
2018-01-30T05:42:42.456Z,24.20
2018-01-30T05:44:03.510Z,24.70
2018-01-30T05:44:42.445Z,24.80
2018-01-30T05:45:43.575Z,26.10
2018-01-30T05:46:42.446Z,28.30
2018-01-30T05:47:47.048Z,19.30
2018-01-30T05:48:42.479Z,28.50
2018-01-30T05:49:42.573Z,31.60
2018-01-30T05:50:42.497Z,25.80
2018-01-30T05:51:42.562Z,28.70
2018-01-30T05:52:42.492Z,27.40
2018-01-30T05:53:42.602Z,23.50
2018-01-30T05:54:42.527Z,24.00
2018-01-30T05:55:43.544Z,25.90
2018-01-30T05:56:42.489Z,25.40
2018-01-30T05:57:42.675Z,33.10
2018-01-30T05:58:42.524Z,32.10
2018-01-30T05:59:42.636Z,32.90
2018-01-30T06:00:42.517Z,26.70
2018-01-30T06:01:54.563Z,24.50
2018-01-30T06:02:42.622Z,25.80
2018-01-30T06:03:47.605Z,27.90
2018-01-30T06:04:42.569Z,26.40
2018-01-30T06:05:42.599Z,24.00
2018-01-30T06:06:42.548Z,25.10
2018-01-30T06:07:42.583Z,28.40
2018-01-30T06:08:42.566Z,30.90
2018-01-30T06:09:42.620Z,24.10
2018-01-30T06:10:42.557Z,26.70
2018-01-30T06:11:47.578Z,35.10
2018-01-30T06:12:42.564Z,30.20
2018-01-30T06:13:48.592Z,32.60
2018-01-30T06:14:42.571Z,23.10
2018-01-30T06:15:42.690Z,29.90
2018-01-30T06:16:42.588Z,24.00
2018-01-30T06:17:44.687Z,30.20
2018-01-30T06:18:42.602Z,29.70
2018-01-30T06:19:42.717Z,26.90
2018-01-30T06:20:42.608Z,27.60
2018-01-30T06:21:43.673Z,34.20
2018-01-30T06:22:42.614Z,26.00
2018-01-30T06:23:47.577Z,24.10
2018-01-30T06:24:42.619Z,27.90
2018-01-30T06:25:42.674Z,30.20
2018-01-30T06:26:42.663Z,24.90
2018-01-30T06:27:43.708Z,32.30
2018-01-30T06:28:42.678Z,27.70
2018-01-30T06:30:08.594Z,32.60
2018-01-30T06:30:42.675Z,29.90
2018-01-30T06:31:44.802Z,27.50
2018-01-30T06:32:42.690Z,30.60
2018-01-30T06:33:42.723Z,24.90
2018-01-30T06:34:42.680Z,32.60
2018-01-30T06:35:44.776Z,35.50
2018-01-30T06:36:42.696Z,28.90
2018-01-30T06:37:42.754Z,33.90
2018-01-30T06:38:42.687Z,36.20
2018-01-30T06:39:47.577Z,32.30
2018-01-30T06:40:42.704Z,29.40
2018-01-30T06:41:43.804Z,23.40
2018-01-30T06:42:42.731Z,31.60
2018-01-30T06:43:43.841Z,27.80
2018-01-30T06:44:42.742Z,31.40
2018-01-30T06:45:42.803Z,33.50
2018-01-30T06:46:42.750Z,24.90
2018-01-30T06:47:43.837Z,34.60
2018-01-30T06:48:42.753Z,29.60
2018-01-30T06:49:43.851Z,32.90
2018-01-30T06:50:42.734Z,27.40
2018-01-30T06:51:42.829Z,32.40
2018-01-30T06:52:42.753Z,29.30
2018-01-30T06:53:42.855Z,31.00
2018-01-30T06:54:42.760Z,34.70
2018-01-30T06:55:43.923Z,29.90
2018-01-30T06:56:42.775Z,38.80
2018-01-30T06:57:42.878Z,33.60
2018-01-30T06:58:42.788Z,36.20
2018-01-30T06:59:42.896Z,29.40
2018-01-30T07:00:42.788Z,33.60
2018-01-30T07:01:43.830Z,39.70
2018-01-30T07:02:42.809Z,32.00
2018-01-30T07:03:42.928Z,32.00
2018-01-30T07:04:42.814Z,30.60
2018-01-30T07:05:42.939Z,31.20
2018-01-30T07:06:42.818Z,32.00
2018-01-30T07:07:48.579Z,32.90
2018-01-30T07:08:42.835Z,33.60
2018-01-30T07:09:42.960Z,32.70
2018-01-30T07:10:42.848Z,34.20
2018-01-30T07:11:53.519Z,33.90
2018-01-30T07:12:42.897Z,30.40
2018-01-30T07:13:42.904Z,34.40
2018-01-30T07:14:42.855Z,35.60
2018-01-30T07:15:57.539Z,38.50
2018-01-30T07:16:42.854Z,35.10
2018-01-30T07:17:48.587Z,41.90
2018-01-30T07:18:42.868Z,41.80
2018-01-30T07:19:42.929Z,33.80
2018-01-30T07:20:42.913Z,43.20
2018-01-30T07:21:54.635Z,33.10
2018-01-30T07:22:42.907Z,35.90
2018-01-30T07:23:45.005Z,35.90
2018-01-30T07:24:42.900Z,28.90
2018-01-30T07:25:44.007Z,38.50
2018-01-30T07:26:42.898Z,34.80
2018-01-30T07:27:53.546Z,38.20
2018-01-30T07:28:42.910Z,38.30
2018-01-30T07:29:43.001Z,42.90
2018-01-30T07:30:42.920Z,36.00
2018-01-30T07:31:44.030Z,36.90
2018-01-30T07:32:42.940Z,38.30
2018-01-30T07:33:45.080Z,38.80
2018-01-30T07:34:42.947Z,43.50
2018-01-30T07:35:43.050Z,41.30
2018-01-30T07:36:42.962Z,40.50
2018-01-30T07:37:45.110Z,40.30
2018-01-30T07:38:42.975Z,41.40
2018-01-30T07:39:45.128Z,51.10
2018-01-30T07:40:42.967Z,38.10
2018-01-30T07:41:43.077Z,38.10
2018-01-30T07:42:42.977Z,42.20
2018-01-30T07:43:44.128Z,42.60
2018-01-30T07:44:42.979Z,43.80
2018-01-30T07:45:44.121Z,47.70
2018-01-30T07:46:43.000Z,41.00
2018-01-30T07:47:43.117Z,44.00
2018-01-30T07:48:43.010Z,39.30
2018-01-30T07:49:45.078Z,47.40
2018-01-30T07:50:43.013Z,46.30
2018-01-30T07:51:43.145Z,41.50
2018-01-30T07:52:43.016Z,47.90
2018-01-30T07:53:43.158Z,41.30
2018-01-30T07:54:43.024Z,40.10
2018-01-30T07:55:45.132Z,43.20
2018-01-30T07:56:43.098Z,41.50
2018-01-30T08:00:35.247Z,50.30
2018-01-30T08:01:33.610Z,51.40
2018-01-30T08:02:48.379Z,55.80
2018-01-30T08:03:33.550Z,53.40
2018-01-30T08:04:33.769Z,61.90
2018-01-30T08:05:33.546Z,53.30
2018-01-30T08:06:33.713Z,48.80
2018-01-30T08:07:33.565Z,50.50
2018-01-30T08:08:35.714Z,47.30
2018-01-30T08:09:33.576Z,51.10
2018-01-30T08:10:33.678Z,58.60
2018-01-30T08:11:33.582Z,45.80
2018-01-30T08:12:33.587Z,56.40
2018-01-30T08:13:34.726Z,61.10
2018-01-30T08:14:33.592Z,58.80
2018-01-30T08:15:35.771Z,59.10
2018-01-30T08:16:33.606Z,65.00
2018-01-30T08:17:33.731Z,62.20
2018-01-30T08:18:33.608Z,59.50
2018-01-30T08:19:34.816Z,69.90
2018-01-30T08:20:33.625Z,70.50
2018-01-30T08:21:35.795Z,91.30
2018-01-30T08:22:33.649Z,72.40
2018-01-30T08:23:33.757Z,77.20
2018-01-30T08:24:33.655Z,72.50
2018-01-30T08:25:34.809Z,61.70
2018-01-30T08:26:33.658Z,72.00
2018-01-30T08:27:33.798Z,74.80
2018-01-30T08:28:33.676Z,68.00
2018-01-30T08:29:34.875Z,75.10
2018-01-30T08:30:33.669Z,74.90
2018-01-30T08:31:33.763Z,66.60
2018-01-30T08:32:33.673Z,76.40
2018-01-30T08:33:34.820Z,96.90
2018-01-30T08:34:33.688Z,85.90
2018-01-30T08:35:34.813Z,73.70
2018-01-30T08:36:33.710Z,89.80
2018-01-30T08:37:33.840Z,70.10
2018-01-30T08:38:33.708Z,73.40
2018-01-30T08:39:48.387Z,60.40
2018-01-30T08:40:33.719Z,79.90
2018-01-30T08:41:35.780Z,72.30
2018-01-30T08:42:33.713Z,86.00
2018-01-30T08:43:34.822Z,70.70
2018-01-30T08:44:33.716Z,66.30
2018-01-30T08:45:45.330Z,66.40
2018-01-30T08:46:33.757Z,66.40
2018-01-30T08:47:33.863Z,68.00
2018-01-30T08:48:33.744Z,65.30
2018-01-30T08:49:40.317Z,65.20
2018-01-30T08:50:33.747Z,67.60
2018-01-30T08:51:34.802Z,53.60
2018-01-30T08:52:33.759Z,62.50
2018-01-30T08:53:39.829Z,58.60
2018-01-30T08:54:33.787Z,56.60
2018-01-30T08:55:34.830Z,50.30
2018-01-30T08:56:33.765Z,53.60
2018-01-30T08:57:39.880Z,51.10
2018-01-30T08:58:33.779Z,54.00
2018-01-30T08:59:34.852Z,54.10
2018-01-30T09:00:33.785Z,55.90
2018-01-30T09:01:34.881Z,45.50
2018-01-30T09:02:33.835Z,49.30
2018-01-30T09:03:35.923Z,52.10
2018-01-30T09:04:33.826Z,56.70
2018-01-30T09:05:35.915Z,45.10
2018-01-30T09:06:33.809Z,47.40
2018-01-30T09:07:39.873Z,45.50
2018-01-30T09:08:33.820Z,44.00
2018-01-30T09:09:35.959Z,42.30
2018-01-30T09:10:33.848Z,44.60
2018-01-30T09:11:34.943Z,44.00
2018-01-30T09:12:33.888Z,40.80
2018-01-30T09:13:40.797Z,46.30
2018-01-30T09:14:33.853Z,46.10
2018-01-30T09:15:39.891Z,48.10
2018-01-30T09:16:33.881Z,52.60
2018-01-30T09:17:39.779Z,46.80
2018-01-30T09:18:33.875Z,44.70
2018-01-30T09:19:34.982Z,44.20
2018-01-30T09:20:33.888Z,42.70
2018-01-30T09:21:39.813Z,52.10
2018-01-30T09:22:33.908Z,43.60
2018-01-30T09:23:35.026Z,42.90
2018-01-30T09:24:33.916Z,44.80
2018-01-30T09:25:34.038Z,43.90
2018-01-30T09:26:33.917Z,43.60
2018-01-30T09:27:34.024Z,42.30
2018-01-30T09:28:33.946Z,48.40
2018-01-30T09:29:38.862Z,42.80
2018-01-30T09:30:33.918Z,43.10
2018-01-30T09:31:34.055Z,39.30
2018-01-30T09:32:33.921Z,44.50
2018-01-30T09:33:36.024Z,48.00
2018-01-30T09:34:33.928Z,50.00
2018-01-30T09:35:38.893Z,45.60
2018-01-30T09:36:33.947Z,43.20
2018-01-30T09:37:34.123Z,45.60
2018-01-30T09:38:33.944Z,48.10
2018-01-30T09:39:38.856Z,45.70
2018-01-30T09:40:33.956Z,57.50
2018-01-30T09:41:35.082Z,46.90
2018-01-30T09:42:33.986Z,45.80
2018-01-30T09:43:38.856Z,44.50
2018-01-30T09:44:34.019Z,42.20
2018-01-30T09:45:34.079Z,44.60
2018-01-30T09:46:33.982Z,44.80
2018-01-30T09:47:38.876Z,44.90
2018-01-30T09:48:34.003Z,41.50
2018-01-30T09:49:38.897Z,47.10
2018-01-30T09:50:34.020Z,43.20
2018-01-30T09:51:35.110Z,42.70
2018-01-30T09:52:34.027Z,42.00
2018-01-30T09:53:34.114Z,44.60
2018-01-30T09:54:34.012Z,40.80
2018-01-30T09:55:35.131Z,41.90
2018-01-30T09:56:34.029Z,44.90
2018-01-30T09:57:35.156Z,38.60
2018-01-30T09:58:34.056Z,46.30
2018-01-30T09:59:34.141Z,41.20
2018-01-30T10:00:34.050Z,41.00
2018-01-30T10:01:34.158Z,44.00
2018-01-30T10:02:34.088Z,40.70
2018-01-30T10:03:36.215Z,45.40
2018-01-30T10:04:34.071Z,46.60
2018-01-30T10:05:36.233Z,46.30
2018-01-30T10:06:34.075Z,42.90
2018-01-30T10:07:39.814Z,42.70
2018-01-30T10:08:34.076Z,43.70
2018-01-30T10:09:38.820Z,37.60
2018-01-30T10:10:34.097Z,43.80
2018-01-30T10:11:35.231Z,47.30
2018-01-30T10:12:34.096Z,49.60
2018-01-30T10:13:36.173Z,43.00
2018-01-30T10:14:34.105Z,53.40
2018-01-30T10:15:46.827Z,42.00
2018-01-30T10:16:34.110Z,43.50
2018-01-30T10:17:36.186Z,49.90
2018-01-30T10:18:34.124Z,43.90
2018-01-30T10:19:34.296Z,47.20
2018-01-30T10:20:34.171Z,44.30
2018-01-30T10:21:36.270Z,43.10
2018-01-30T10:22:34.140Z,46.30
2018-01-30T10:23:35.246Z,42.00
2018-01-30T10:24:34.147Z,47.20
2018-01-30T10:25:35.223Z,41.70
2018-01-30T10:26:34.207Z,43.90
2018-01-30T10:27:38.827Z,40.50
2018-01-30T10:28:34.174Z,43.60
2018-01-30T10:29:36.282Z,38.60
2018-01-30T10:30:34.172Z,39.10
2018-01-30T10:31:39.889Z,41.20
2018-01-30T10:32:34.181Z,42.40
2018-01-30T10:33:35.272Z,42.20
2018-01-30T10:34:34.204Z,44.30
2018-01-30T10:35:34.272Z,44.30
2018-01-30T10:36:34.197Z,40.40
2018-01-30T10:37:38.892Z,43.40
2018-01-30T10:38:34.243Z,43.70
2018-01-30T10:39:36.379Z,44.00
2018-01-30T10:40:34.234Z,44.40
2018-01-30T10:41:34.331Z,42.20
2018-01-30T10:42:34.231Z,46.70
2018-01-30T10:44:01.918Z,41.90
2018-01-30T10:44:34.265Z,43.90
2018-01-30T10:45:39.864Z,41.70
2018-01-30T10:46:34.286Z,41.90
2018-01-30T10:47:48.891Z,37.30
2018-01-30T10:48:34.289Z,39.80
2018-01-30T10:49:38.874Z,34.30
2018-01-30T10:50:34.264Z,32.20
2018-01-30T10:51:36.460Z,37.60
2018-01-30T10:52:34.276Z,36.30
2018-01-30T10:53:35.418Z,41.40
2018-01-30T10:54:34.269Z,42.00
2018-01-30T10:55:34.422Z,39.30
2018-01-30T10:56:34.306Z,43.10
2018-01-30T10:57:40.407Z,38.40
2018-01-30T10:58:34.288Z,39.20
2018-01-30T10:59:41.417Z,36.70
2018-01-30T11:00:35.278Z,42.30
2018-01-30T11:01:56.476Z,43.60
2018-01-30T11:02:34.310Z,41.90
2018-01-30T11:03:55.350Z,40.50
2018-01-30T11:04:34.324Z,36.90
2018-01-30T11:05:50.365Z,39.80
2018-01-30T11:06:34.375Z,43.70
2018-01-30T11:07:40.477Z,42.00
2018-01-30T11:08:34.348Z,44.20
2018-01-30T11:10:04.434Z,41.20
2018-01-30T11:10:34.366Z,43.10
2018-01-30T11:11:34.360Z,40.70
2018-01-30T11:12:47.372Z,41.50
2018-01-30T11:13:34.370Z,36.70
2018-01-30T11:14:34.360Z,43.00
2018-01-30T11:15:40.328Z,43.30
2018-01-30T11:16:34.371Z,52.30
2018-01-30T11:17:47.304Z,43.40
2018-01-30T11:18:34.390Z,38.70
2018-01-30T11:19:58.395Z,45.20
2018-01-30T11:20:34.389Z,37.00
2018-01-30T11:21:39.352Z,38.50
2018-01-30T11:22:34.422Z,37.20
2018-01-30T11:23:34.438Z,40.70
2018-01-30T11:24:34.441Z,35.40
2018-01-30T11:25:36.500Z,40.30
2018-01-30T11:26:37.264Z,36.00
2018-01-30T11:27:34.430Z,35.70
2018-01-30T11:28:59.348Z,41.70
2018-01-30T11:29:34.455Z,44.50
2018-01-30T11:30:34.448Z,35.20
2018-01-30T11:31:50.355Z,32.40
2018-01-30T11:32:34.479Z,31.20
2018-01-30T11:33:47.301Z,35.40
2018-01-30T11:34:34.461Z,36.20
2018-01-30T11:35:34.467Z,35.70
2018-01-30T11:36:34.487Z,31.50
2018-01-30T11:37:34.534Z,31.50
2018-01-30T11:38:34.491Z,31.70
2018-01-30T11:39:50.366Z,31.60
2018-01-30T11:40:34.475Z,31.80
2018-01-30T12:21:58.100Z,30.20
2018-01-30T13:21:58.959Z,18.30
2018-01-30T13:22:58.969Z,20.40
2018-01-30T13:23:58.940Z,17.30
2018-01-30T13:25:00.006Z,15.20
2018-01-30T13:25:58.948Z,21.10
2018-01-30T13:26:58.960Z,14.10
2018-01-30T13:27:58.998Z,14.50
2018-01-30T13:28:58.968Z,18.00
2018-01-30T13:29:59.014Z,20.30
2018-01-30T13:30:58.982Z,17.90
2018-01-30T13:31:58.979Z,15.60
2018-01-30T13:32:59.028Z,19.10
2018-01-30T13:33:58.984Z,16.20
2018-01-30T13:34:59.041Z,19.10
2018-01-30T13:35:59.004Z,20.40
2018-01-30T13:37:03.663Z,17.20
2018-01-30T13:37:59.013Z,19.10
2018-01-30T13:38:59.068Z,16.50
2018-01-30T13:39:59.018Z,13.50
2018-01-30T13:40:59.080Z,22.00
2018-01-30T13:41:59.039Z,19.80
2018-01-30T13:42:59.103Z,22.20
2018-01-30T13:43:59.086Z,19.90
2018-01-30T13:44:59.127Z,24.40
2018-01-30T13:45:59.284Z,18.30
2018-01-30T13:47:00.169Z,24.20
2018-01-30T13:47:59.057Z,22.00
2018-01-30T13:48:59.065Z,21.60
2018-01-30T13:49:59.149Z,19.70
2018-01-30T13:50:59.254Z,17.60
2018-01-30T13:51:59.181Z,20.90
2018-01-30T13:52:59.157Z,19.90
2018-01-30T13:53:59.081Z,17.80
2018-01-30T13:54:59.178Z,18.70
2018-01-30T13:55:59.183Z,20.00
2018-01-30T13:57:03.742Z,18.20
2018-01-30T13:57:59.270Z,18.20
2018-01-30T13:59:01.372Z,21.50
2018-01-30T13:59:59.138Z,18.60
2018-01-30T14:00:59.217Z,20.90
2018-01-30T14:01:59.125Z,20.80
2018-01-30T14:02:59.127Z,26.10
2018-01-30T14:04:04.154Z,24.70
2018-01-30T14:04:59.141Z,19.70
2018-01-30T14:06:01.304Z,21.10
2018-01-30T14:06:59.162Z,25.30
2018-01-30T14:07:59.169Z,22.00
2018-01-30T14:08:59.162Z,19.70
2018-01-30T14:09:59.156Z,19.80
2018-01-30T14:10:59.159Z,21.50
2018-01-30T14:12:00.222Z,27.30
2018-01-30T14:12:59.172Z,19.50
2018-01-30T14:13:59.207Z,24.30
2018-01-30T14:14:59.184Z,25.40
2018-01-30T14:15:59.224Z,24.20
2018-01-30T14:16:59.211Z,25.60
2018-01-30T14:18:04.155Z,21.40
2018-01-30T14:18:59.196Z,27.20
2018-01-30T14:19:59.246Z,26.90
2018-01-30T14:20:59.226Z,25.80
2018-01-30T14:21:59.261Z,26.60
2018-01-30T14:22:59.223Z,26.00
2018-01-30T14:23:59.262Z,27.50
2018-01-30T14:24:59.241Z,23.40
2018-01-30T14:25:59.238Z,26.20
2018-01-30T14:26:59.236Z,23.90
2018-01-30T14:28:00.327Z,25.20
2018-01-30T14:28:59.241Z,21.70
2018-01-30T14:29:59.251Z,26.10
2018-01-30T14:30:59.276Z,23.70
2018-01-30T14:32:01.378Z,24.40
2018-01-30T14:32:59.267Z,24.50
2018-01-30T14:33:59.292Z,25.30
2018-01-30T14:34:59.418Z,31.50
2018-01-30T14:35:59.372Z,26.70
2018-01-30T14:37:04.239Z,21.70
2018-01-30T14:37:59.400Z,29.80
2018-01-30T14:38:59.446Z,28.40
2018-01-30T14:39:59.358Z,23.80
2018-01-30T14:40:59.417Z,25.00
2018-01-30T14:41:59.511Z,25.90
2018-01-30T14:42:59.476Z,22.10
2018-01-30T14:43:59.352Z,27.50
2018-01-30T14:44:59.591Z,26.00
2018-01-30T14:45:59.490Z,28.70
2018-01-30T14:46:59.440Z,29.60
2018-01-30T14:47:59.424Z,27.30
2018-01-30T14:48:59.444Z,28.20
2018-01-30T14:49:59.373Z,26.20
2018-01-30T14:50:59.466Z,27.50
2018-01-30T14:51:59.353Z,28.20
2018-01-30T14:53:00.717Z,24.60
2018-01-30T14:53:59.360Z,29.40
2018-01-30T14:54:59.372Z,35.70
2018-01-30T14:55:59.368Z,33.10
2018-01-30T14:56:59.376Z,29.00
2018-01-30T14:57:59.445Z,30.90
2018-01-30T14:58:59.383Z,35.80
2018-01-30T14:59:59.612Z,31.70
2018-01-30T15:00:59.401Z,31.90
2018-01-30T15:02:00.495Z,34.40
2018-01-30T15:02:59.416Z,33.90
2018-01-30T15:03:59.449Z,32.90
2018-01-30T15:04:59.414Z,31.10
2018-01-30T15:06:00.482Z,34.70
2018-01-30T15:06:59.421Z,34.90
2018-01-30T15:07:59.426Z,31.20
2018-01-30T15:08:59.431Z,39.50
2018-01-30T15:09:59.523Z,36.60
2018-01-30T15:10:59.445Z,31.30
2018-01-30T15:11:59.567Z,39.60
2018-01-30T15:12:59.458Z,32.70
2018-01-30T15:13:59.522Z,31.20
2018-01-30T15:14:59.708Z,29.50
2018-01-30T15:15:59.656Z,30.80
2018-01-30T15:16:59.468Z,34.70
2018-01-30T15:17:59.531Z,32.00
2018-01-30T15:18:59.472Z,33.50
2018-01-30T15:19:59.535Z,32.10
2018-01-30T15:20:59.544Z,32.10
2018-01-30T15:21:59.565Z,31.60
2018-01-30T15:22:59.507Z,32.80
2018-01-30T15:24:00.586Z,32.90
2018-01-30T15:24:59.543Z,39.90
2018-01-30T15:25:59.576Z,34.30
2018-01-30T15:26:59.512Z,34.70
2018-01-30T15:27:59.593Z,32.60
2018-01-30T15:28:59.519Z,36.20
2018-01-30T15:29:59.603Z,36.70
2018-01-30T15:30:59.534Z,33.80
2018-01-30T15:31:59.569Z,37.90
2018-01-30T15:32:59.536Z,35.60
2018-01-30T15:33:59.590Z,38.10
2018-01-30T15:34:59.549Z,32.90
2018-01-30T15:35:59.652Z,36.10
2018-01-30T15:36:59.567Z,36.70
2018-01-30T15:37:59.616Z,38.10
2018-01-30T15:38:59.571Z,36.00
2018-01-30T15:39:59.622Z,38.80
2018-01-30T15:40:59.583Z,34.20
2018-01-30T15:41:59.644Z,37.50
2018-01-30T15:42:59.586Z,34.40
2018-01-30T15:43:59.657Z,37.90
2018-01-30T15:44:59.593Z,44.70
2018-01-30T15:45:59.667Z,34.00
2018-01-30T15:46:59.704Z,38.90
2018-01-30T15:47:59.679Z,37.10
2018-01-30T15:48:59.664Z,38.80
2018-01-30T15:50:00.719Z,41.10
2018-01-30T15:50:59.632Z,40.40
2018-01-30T15:51:59.652Z,45.20
2018-01-30T15:52:59.638Z,42.80
2018-01-30T15:53:59.751Z,44.40
2018-01-30T15:54:59.636Z,38.20
2018-01-30T15:55:59.738Z,38.90
2018-01-30T15:56:59.649Z,42.60
2018-01-30T15:57:59.750Z,38.40
2018-01-30T15:58:59.709Z,39.10
2018-01-30T15:59:59.661Z,43.80
2018-01-30T16:00:59.828Z,40.10
2018-01-30T16:01:59.670Z,42.30
2018-01-30T16:02:59.749Z,43.70
2018-01-30T16:03:59.686Z,40.20
2018-01-30T16:04:59.780Z,46.20
2018-01-30T16:05:59.700Z,40.00
2018-01-30T16:06:59.776Z,39.40
2018-01-30T16:07:59.695Z,39.00
2018-01-30T16:08:59.785Z,37.50
2018-01-30T16:09:59.714Z,38.20
2018-01-30T16:10:59.828Z,42.30
2018-01-30T16:11:59.749Z,45.40
2018-01-30T16:12:59.818Z,42.90
2018-01-30T16:13:59.752Z,41.50
2018-01-30T16:14:59.845Z,40.50
2018-01-30T16:15:59.728Z,42.60
2018-01-30T16:16:59.854Z,40.50
2018-01-30T16:17:59.766Z,39.90
2018-01-30T16:18:59.814Z,48.50
2018-01-30T16:19:59.750Z,42.90
2018-01-30T16:20:59.794Z,41.00
2018-01-30T16:21:59.764Z,40.40
2018-01-30T16:22:59.825Z,42.10
2018-01-30T16:23:59.769Z,42.20
2018-01-30T16:24:59.778Z,41.30
2018-01-30T16:25:59.816Z,40.60
2018-01-30T16:26:59.778Z,42.30
2018-01-30T16:27:59.846Z,41.40
2018-01-30T16:28:59.957Z,45.10
2018-01-30T16:30:00.861Z,43.10
2018-01-30T16:30:59.798Z,41.80
2018-01-30T16:31:59.845Z,40.90
2018-01-30T16:32:59.819Z,47.10
2018-01-30T16:34:00.883Z,46.10
2018-01-30T16:34:59.874Z,43.90
2018-01-30T16:36:00.904Z,45.90
2018-01-30T16:37:01.638Z,44.80
2018-01-30T16:37:59.837Z,43.40
2018-01-30T16:38:59.876Z,45.80
2018-01-30T16:39:59.857Z,48.70
2018-01-30T16:41:00.018Z,42.20
2018-01-30T16:41:59.840Z,50.10
2018-01-30T16:42:59.905Z,51.10
2018-01-30T16:43:59.854Z,48.00
2018-01-30T16:44:59.916Z,43.10
2018-01-30T16:45:59.862Z,47.00
2018-01-30T16:46:59.933Z,42.50
2018-01-30T16:47:59.928Z,47.30
2018-01-30T16:48:59.948Z,45.20
2018-01-30T16:49:59.887Z,45.90
2018-01-30T16:50:59.960Z,42.80
2018-01-30T16:51:59.937Z,49.00
2018-01-30T16:52:59.890Z,48.70
2018-01-30T16:53:59.895Z,44.90
2018-01-30T16:55:01.029Z,42.00
2018-01-30T16:55:59.921Z,41.10
2018-01-30T16:57:01.029Z,42.60
2018-01-30T16:57:59.922Z,40.40
2018-01-30T16:59:00.059Z,45.40
2018-01-30T16:59:59.924Z,48.40
2018-01-30T17:01:00.039Z,45.90
2018-01-30T17:01:59.926Z,47.00
2018-01-30T17:03:00.965Z,43.30
2018-01-30T17:03:59.947Z,45.80
2018-01-30T17:05:00.068Z,41.60
2018-01-30T17:05:59.949Z,43.70
2018-01-30T17:06:59.970Z,44.90
2018-01-30T17:07:59.953Z,45.40
2018-01-30T17:08:59.988Z,45.40
2018-01-30T17:09:59.974Z,47.40
2018-01-30T17:11:04.712Z,46.50
2018-01-30T17:11:59.972Z,49.60
2018-01-30T17:13:02.056Z,44.40
2018-01-30T17:13:59.981Z,47.80
2018-01-30T17:15:01.067Z,44.00
2018-01-30T17:15:59.986Z,43.90
2018-01-30T17:17:00.047Z,49.90
2018-01-30T17:17:59.999Z,45.50
2018-01-30T17:19:00.004Z,45.80
2018-01-30T17:20:01.085Z,48.20
2018-01-30T17:21:00.647Z,48.10
2018-01-30T17:22:00.081Z,45.30
2018-01-30T17:23:00.033Z,50.90
2018-01-30T17:24:00.188Z,54.60
2018-01-30T17:25:00.030Z,49.00
2018-01-30T17:26:00.197Z,50.40
2018-01-30T17:27:00.035Z,50.80
2018-01-30T17:28:00.216Z,50.60
2018-01-30T17:29:00.045Z,50.70
2018-01-30T17:30:00.236Z,56.40
2018-01-30T17:31:00.055Z,46.40
2018-01-30T17:32:00.243Z,49.00
2018-01-30T17:33:00.059Z,46.30
2018-01-30T17:34:00.078Z,43.50
2018-01-30T17:35:00.271Z,44.40
2018-01-30T17:36:00.087Z,45.60
2018-01-30T17:37:00.282Z,42.40
2018-01-30T17:38:00.096Z,47.90
2018-01-30T17:39:00.209Z,47.60
2018-01-30T17:40:00.087Z,47.60
2018-01-30T17:41:00.204Z,45.20
2018-01-30T17:42:00.113Z,47.30
2018-01-30T17:43:00.217Z,44.40
2018-01-30T17:44:00.140Z,52.90
2018-01-30T17:45:00.241Z,51.00
2018-01-30T17:46:00.117Z,51.10
2018-01-30T17:47:00.137Z,50.20
2018-01-30T17:48:00.118Z,45.70